createdAt,value
2017-08-24T00:00:14.290Z,81.19
2017-08-24T00:02:07.310Z,81.48
2017-08-24T00:03:07.356Z,81.52
2017-08-24T00:05:00.357Z,81.48
2017-08-24T00:06:00.424Z,81.52
2017-08-24T00:07:53.450Z,81.32
2017-08-24T00:08:53.497Z,80.42
2017-08-24T00:10:46.500Z,80.99
2017-08-24T00:11:46.572Z,80.90
2017-08-24T00:13:39.586Z,80.51
2017-08-24T00:14:39.634Z,80.71
2017-08-24T00:16:32.652Z,80.36
2017-08-24T00:17:32.699Z,79.40
2017-08-24T00:19:25.706Z,79.30
2017-08-24T00:20:25.775Z,79.02
2017-08-24T00:22:18.794Z,79.30
2017-08-24T00:23:18.842Z,78.83
2017-08-24T00:25:11.847Z,79.50
2017-08-24T00:26:11.910Z,79.30
2017-08-24T00:28:04.927Z,78.34
2017-08-24T00:29:04.974Z,78.53
2017-08-24T00:30:57.973Z,77.86
2017-08-24T00:31:58.040Z,77.86
2017-08-24T00:33:51.060Z,78.25
2017-08-24T00:34:51.105Z,78.63
2017-08-24T00:36:44.135Z,78.83
2017-08-24T00:37:44.184Z,79.11
2017-08-24T00:39:37.186Z,79.40
2017-08-24T00:40:37.247Z,79.40
2017-08-24T00:42:30.268Z,80.27
2017-08-24T00:43:30.315Z,79.98
2017-08-24T00:45:23.323Z,80.46
2017-08-24T00:46:23.390Z,80.27
2017-08-24T00:48:16.411Z,80.84
2017-08-24T00:49:16.456Z,79.98
2017-08-24T00:51:09.497Z,80.46
2017-08-24T00:52:09.561Z,80.46
2017-08-24T00:54:02.584Z,81.32
2017-08-24T00:55:02.637Z,81.81
2017-08-24T00:56:55.654Z,82.19
2017-08-24T00:57:55.701Z,82.76
2017-08-24T00:59:48.702Z,82.67
2017-08-24T01:00:48.769Z,82.76
2017-08-24T01:02:46.822Z,83.92
2017-08-24T01:03:41.846Z,83.73
2017-08-24T01:05:34.848Z,84.21
2017-08-24T01:06:34.911Z,85.07
2017-08-24T01:08:27.934Z,85.07
2017-08-24T01:09:27.980Z,85.07
2017-08-24T01:11:20.978Z,85.55
2017-08-24T01:12:21.045Z,86.32
2017-08-24T01:14:14.066Z,86.13
2017-08-24T01:15:14.112Z,86.71
2017-08-24T01:17:07.646Z,86.90
2017-08-24T01:18:07.683Z,87.29
2017-08-24T01:20:00.686Z,87.76
2017-08-24T01:21:00.751Z,87.57
2017-08-24T01:22:53.770Z,87.76
2017-08-24T01:23:53.816Z,87.67
2017-08-24T01:25:46.819Z,87.19
2017-08-24T01:26:46.886Z,87.57
2017-08-24T01:28:39.912Z,87.29
2017-08-24T01:29:39.958Z,87.96
2017-08-24T01:31:32.956Z,87.42
2017-08-24T01:32:33.024Z,87.96
2017-08-24T01:34:26.086Z,88.00
2017-08-24T01:35:26.094Z,88.10
2017-08-24T01:37:19.108Z,88.19
2017-08-24T01:38:19.156Z,88.10
2017-08-24T01:40:12.157Z,88.10
2017-08-24T01:41:12.221Z,88.10
2017-08-24T01:43:05.246Z,87.13
2017-08-24T01:44:05.290Z,87.62
2017-08-24T01:45:58.292Z,87.04
2017-08-24T01:46:58.357Z,87.71
2017-08-24T01:48:51.380Z,87.81
2017-08-24T01:49:51.427Z,87.71
2017-08-24T01:51:44.426Z,87.90
2017-08-24T01:52:44.494Z,87.90
2017-08-24T01:54:37.517Z,87.90
2017-08-24T01:55:37.562Z,87.42
2017-08-24T01:57:30.585Z,87.71
2017-08-24T01:58:30.630Z,87.62
2017-08-24T02:00:23.626Z,87.76
2017-08-24T02:01:23.691Z,87.67
2017-08-24T02:03:16.718Z,87.76
2017-08-24T02:04:16.764Z,87.57
2017-08-24T02:06:09.760Z,87.81
2017-08-24T02:07:09.828Z,87.71
2017-08-24T02:09:02.848Z,87.62
2017-08-24T02:10:02.897Z,87.38
2017-08-24T02:11:55.897Z,87.48
2017-08-24T02:12:55.966Z,87.96
2017-08-24T02:14:48.988Z,87.57
2017-08-24T02:15:49.034Z,87.19
2017-08-24T02:17:42.564Z,87.38
2017-08-24T02:18:42.606Z,87.57
2017-08-24T02:20:35.607Z,87.29
2017-08-24T02:21:35.672Z,87.67
2017-08-24T02:23:28.694Z,87.38
2017-08-24T02:24:28.739Z,87.86
2017-08-24T02:26:21.740Z,87.76
2017-08-24T02:27:21.809Z,87.67
2017-08-24T02:29:14.828Z,87.29
2017-08-24T02:30:14.876Z,87.76
2017-08-24T02:32:07.873Z,87.57
2017-08-24T02:33:07.943Z,86.90
2017-08-24T02:35:00.964Z,87.67
2017-08-24T02:36:01.009Z,86.99
2017-08-24T02:37:54.030Z,86.71
2017-08-24T02:38:54.076Z,86.71
2017-08-24T02:40:47.078Z,86.90
2017-08-24T02:41:47.145Z,86.42
2017-08-24T02:43:40.162Z,86.04
2017-08-24T02:44:40.207Z,86.32
2017-08-24T02:46:33.213Z,86.52
2017-08-24T02:47:33.280Z,86.42
2017-08-24T02:49:26.301Z,85.55
2017-08-24T02:50:26.345Z,85.55
2017-08-24T02:52:19.344Z,85.46
2017-08-24T02:53:19.410Z,85.84
2017-08-24T02:55:12.428Z,85.55
2017-08-24T02:56:12.475Z,85.75
2017-08-24T02:58:05.498Z,85.84
2017-08-24T02:59:05.549Z,85.65
2017-08-24T03:00:58.552Z,85.46
2017-08-24T03:01:58.616Z,85.84
2017-08-24T03:03:51.641Z,86.22
2017-08-24T03:04:51.687Z,86.04
2017-08-24T03:06:44.689Z,85.36
2017-08-24T03:07:44.753Z,84.98
2017-08-24T03:09:37.772Z,85.75
2017-08-24T03:10:37.817Z,85.17
2017-08-24T03:12:30.815Z,85.27
2017-08-24T03:13:30.883Z,85.55
2017-08-24T03:15:23.902Z,85.84
2017-08-24T03:16:23.949Z,85.84
2017-08-24T03:18:16.969Z,85.65
2017-08-24T03:19:17.017Z,86.13
2017-08-24T03:21:10.018Z,86.13
2017-08-24T03:22:10.086Z,85.84
2017-08-24T03:24:03.107Z,85.84
2017-08-24T03:25:03.152Z,85.94
2017-08-24T03:26:56.149Z,86.32
2017-08-24T03:27:56.216Z,86.22
2017-08-24T03:29:49.244Z,86.42
2017-08-24T03:30:49.292Z,86.52
2017-08-24T03:32:42.295Z,86.47
2017-08-24T03:33:42.362Z,86.76
2017-08-24T03:35:35.383Z,86.22
2017-08-24T03:36:35.429Z,86.42
2017-08-24T03:38:28.453Z,86.85
2017-08-24T03:39:28.499Z,86.90
2017-08-24T03:41:21.498Z,86.04
2017-08-24T03:42:21.563Z,86.61
2017-08-24T03:44:14.600Z,86.09
2017-08-24T03:45:14.649Z,85.71
2017-08-24T03:47:07.632Z,85.89
2017-08-24T03:48:07.690Z,85.36
2017-08-24T03:50:00.711Z,85.75
2017-08-24T03:51:00.793Z,86.18
2017-08-24T03:52:53.770Z,85.99
2017-08-24T03:53:53.925Z,85.22
2017-08-24T03:55:46.870Z,85.17
2017-08-24T03:56:46.887Z,85.13
2017-08-24T03:58:39.911Z,85.03
2017-08-24T03:59:39.952Z,84.94
2017-08-24T04:01:32.956Z,84.64
2017-08-24T04:02:33.068Z,84.26
2017-08-24T04:04:26.073Z,84.94
2017-08-24T04:05:26.089Z,85.03
2017-08-24T04:07:19.088Z,85.13
2017-08-24T04:08:19.202Z,85.32
2017-08-24T04:10:12.186Z,84.74
2017-08-24T04:11:12.215Z,84.94
2017-08-24T04:13:05.222Z,84.55
2017-08-24T04:14:05.281Z,84.94
2017-08-24T04:15:58.299Z,84.94
2017-08-24T04:16:58.368Z,84.64
2017-08-24T04:18:51.366Z,84.36
2017-08-24T04:19:51.411Z,84.74
2017-08-24T04:21:44.411Z,84.26
2017-08-24T04:22:44.478Z,84.94
2017-08-24T04:24:37.498Z,84.45
2017-08-24T04:25:37.543Z,83.97
2017-08-24T04:27:30.541Z,83.78
2017-08-24T04:28:30.608Z,83.78
2017-08-24T04:30:23.631Z,84.26
2017-08-24T04:31:23.676Z,84.36
2017-08-24T04:33:16.700Z,84.64
2017-08-24T04:34:16.742Z,84.55
2017-08-24T04:36:09.765Z,84.64
2017-08-24T04:37:09.832Z,84.64
2017-08-24T04:39:02.830Z,84.64
2017-08-24T04:40:02.876Z,84.84
2017-08-24T04:41:55.872Z,85.32
2017-08-24T04:42:55.939Z,84.84
2017-08-24T04:44:48.957Z,84.55
2017-08-24T04:45:49.004Z,84.07
2017-08-24T04:47:42.014Z,84.55
2017-08-24T04:48:42.089Z,84.07
2017-08-24T04:50:35.082Z,84.36
2017-08-24T04:51:35.129Z,84.36
2017-08-24T04:53:28.125Z,84.07
2017-08-24T04:54:28.200Z,83.87
2017-08-24T04:56:21.223Z,83.87
2017-08-24T04:57:21.262Z,84.17
2017-08-24T04:59:14.279Z,83.87
2017-08-24T05:00:14.326Z,83.87
2017-08-24T05:02:07.329Z,83.78
2017-08-24T05:03:07.394Z,84.17
2017-08-24T05:05:00.443Z,83.59
2017-08-24T05:06:00.473Z,83.97
2017-08-24T05:07:53.473Z,84.07
2017-08-24T05:08:53.574Z,84.07
2017-08-24T05:10:46.553Z,83.97
2017-08-24T05:11:46.598Z,83.11
2017-08-24T05:13:39.605Z,83.97
2017-08-24T05:14:39.661Z,83.11
2017-08-24T05:16:32.688Z,83.11
2017-08-24T05:17:32.737Z,83.30
2017-08-24T05:19:25.788Z,83.40
2017-08-24T05:20:25.803Z,83.11
2017-08-24T05:22:18.802Z,83.49
2017-08-24T05:23:18.917Z,83.11
2017-08-24T05:25:11.887Z,83.49
2017-08-24T05:26:11.933Z,83.49
2017-08-24T05:28:05.031Z,82.63
2017-08-24T05:29:05.128Z,82.92
2017-08-24T05:30:58.023Z,83.20
2017-08-24T05:31:58.077Z,83.30
2017-08-24T05:33:51.082Z,82.73
2017-08-24T05:34:51.142Z,82.53
2017-08-24T05:36:44.168Z,82.43
2017-08-24T05:37:44.216Z,82.92
2017-08-24T05:39:37.234Z,82.63
2017-08-24T05:40:37.278Z,82.63
2017-08-24T05:42:30.276Z,82.53
2017-08-24T05:43:30.342Z,82.05
2017-08-24T05:45:23.361Z,81.76
2017-08-24T05:46:23.406Z,81.86
2017-08-24T05:48:16.411Z,81.86
2017-08-24T05:49:16.476Z,81.96
2017-08-24T05:51:09.499Z,81.76
2017-08-24T05:52:09.545Z,81.67
2017-08-24T05:54:02.545Z,82.92
2017-08-24T05:55:02.626Z,83.01
2017-08-24T05:56:55.634Z,82.34
2017-08-24T05:57:55.679Z,82.63
2017-08-24T05:59:48.697Z,82.53
2017-08-24T06:00:48.744Z,82.82
2017-08-24T06:02:41.746Z,82.53
2017-08-24T06:03:41.817Z,82.53
2017-08-24T06:05:34.842Z,82.40
2017-08-24T06:06:34.903Z,82.59
2017-08-24T06:08:27.893Z,82.40
2017-08-24T06:09:27.976Z,82.49
2017-08-24T06:11:20.978Z,82.53
2017-08-24T06:12:21.024Z,82.92
2017-08-24T06:14:14.026Z,82.34
2017-08-24T06:15:14.098Z,82.53
2017-08-24T06:17:07.122Z,83.01
2017-08-24T06:18:07.170Z,82.05
2017-08-24T06:20:00.191Z,82.34
2017-08-24T06:21:00.237Z,81.96
2017-08-24T06:22:53.251Z,81.96
2017-08-24T06:23:53.318Z,81.38
2017-08-24T06:25:46.355Z,82.53
2017-08-24T06:26:46.390Z,82.15
2017-08-24T06:28:39.387Z,82.43
2017-08-24T06:29:39.454Z,82.63
2017-08-24T06:31:32.475Z,82.05
2017-08-24T06:32:32.521Z,82.10
2017-08-24T06:34:25.534Z,81.72
2017-08-24T06:35:25.597Z,82.49
2017-08-24T06:37:18.618Z,82.30
2017-08-24T06:38:18.664Z,82.40
2017-08-24T06:40:11.685Z,82.63
2017-08-24T06:41:11.753Z,82.73
2017-08-24T06:43:04.738Z,82.63
2017-08-24T06:44:04.807Z,81.96
2017-08-24T06:45:57.824Z,82.43
2017-08-24T06:46:57.871Z,81.86
2017-08-24T06:48:50.873Z,81.67
2017-08-24T06:49:50.938Z,81.76
2017-08-24T06:51:43.964Z,81.96
2017-08-24T06:52:44.012Z,81.48
2017-08-24T06:54:37.022Z,81.38
2017-08-24T06:55:37.094Z,82.05
2017-08-24T06:57:30.123Z,81.09
2017-08-24T06:58:30.163Z,81.96
2017-08-24T07:00:23.226Z,82.15
2017-08-24T07:01:23.271Z,81.76
2017-08-24T07:03:16.287Z,81.86
2017-08-24T07:04:16.348Z,81.48
2017-08-24T07:06:09.371Z,81.96
2017-08-24T07:07:09.420Z,81.96
2017-08-24T07:09:02.465Z,82.34
2017-08-24T07:10:02.486Z,82.24
2017-08-24T07:11:55.513Z,82.05
2017-08-24T07:12:55.556Z,81.96
2017-08-24T07:14:48.561Z,82.15
2017-08-24T07:15:48.629Z,82.63
2017-08-24T07:17:41.650Z,81.86
2017-08-24T07:18:41.707Z,82.34
2017-08-24T07:20:34.723Z,82.73
2017-08-24T07:21:34.769Z,82.34
2017-08-24T07:23:27.786Z,82.73
2017-08-24T07:24:27.843Z,82.15
2017-08-24T07:26:20.864Z,81.19
2017-08-24T07:27:20.911Z,80.90
2017-08-24T07:29:13.923Z,80.61
2017-08-24T07:30:13.975Z,80.99
2017-08-24T07:32:06.992Z,80.90
2017-08-24T07:33:07.039Z,81.48
2017-08-24T07:35:00.039Z,82.05
2017-08-24T07:36:00.107Z,81.04
2017-08-24T07:37:53.134Z,81.23
2017-08-24T07:38:53.181Z,81.23
2017-08-24T07:40:46.204Z,80.65
2017-08-24T07:41:46.251Z,79.98
2017-08-24T07:43:39.254Z,80.36
2017-08-24T07:44:39.339Z,81.09
2017-08-24T07:46:32.350Z,81.23
2017-08-24T07:47:32.399Z,80.42
2017-08-24T07:49:25.404Z,80.61
2017-08-24T07:50:25.471Z,80.94
2017-08-24T07:52:18.500Z,79.69
2017-08-24T07:53:18.546Z,79.40
2017-08-24T07:55:11.552Z,78.83
2017-08-24T07:56:11.618Z,79.11
2017-08-24T07:58:04.664Z,79.21
2017-08-24T07:59:04.710Z,80.27
2017-08-24T08:00:57.738Z,80.36
2017-08-24T08:01:57.787Z,80.84
2017-08-24T08:03:50.788Z,80.46
2017-08-24T08:04:50.857Z,80.75
2017-08-24T08:06:43.873Z,79.50
2017-08-24T08:07:43.922Z,78.92
2017-08-24T08:09:38.439Z,79.30
2017-08-24T08:10:38.495Z,79.30
2017-08-24T08:12:31.526Z,80.17
2017-08-24T08:13:31.568Z,79.40
2017-08-24T08:15:25.081Z,78.96
2017-08-24T08:16:25.143Z,79.40
2017-08-24T08:18:18.163Z,79.30
2017-08-24T08:19:18.209Z,79.05
2017-08-24T08:21:11.227Z,79.05
2017-08-24T08:22:11.273Z,78.19
2017-08-24T08:24:04.280Z,77.90
2017-08-24T08:25:04.346Z,77.81
2017-08-24T08:26:57.375Z,77.75
2017-08-24T08:27:57.421Z,77.56
2017-08-24T08:29:50.426Z,76.25
2017-08-24T08:30:50.490Z,75.38
2017-08-24T08:32:43.530Z,75.19
2017-08-24T08:33:44.511Z,75.09
2017-08-24T08:35:36.601Z,74.61
2017-08-24T08:36:36.644Z,74.41
2017-08-24T08:38:29.665Z,72.81
2017-08-24T08:39:29.712Z,72.56
2017-08-24T08:41:22.733Z,71.60
2017-08-24T08:42:22.782Z,71.31
2017-08-24T08:44:15.787Z,71.50
2017-08-24T08:45:15.864Z,71.31
2017-08-24T08:47:08.889Z,70.15
2017-08-24T08:48:08.935Z,71.50
2017-08-24T08:50:01.961Z,69.26
2017-08-24T08:51:02.019Z,68.65
2017-08-24T08:52:55.047Z,66.91
2017-08-24T08:53:55.098Z,67.27
2017-08-24T08:55:48.103Z,66.43
2017-08-24T08:56:48.186Z,64.27
2017-08-24T08:58:41.201Z,64.50
2017-08-24T08:59:41.249Z,64.47
2017-08-24T09:01:34.272Z,66.14
2017-08-24T09:02:34.324Z,66.24
2017-08-24T09:04:27.335Z,66.40
2017-08-24T09:05:27.489Z,65.82
2017-08-24T09:07:20.468Z,68.26
2017-08-24T09:08:20.507Z,69.71
2017-08-24T09:10:13.515Z,68.80
2017-08-24T09:11:13.596Z,68.07
2017-08-24T09:13:06.612Z,68.01
2017-08-24T09:14:06.687Z,67.65
2017-08-24T09:16:00.206Z,65.24
2017-08-24T09:17:00.240Z,64.56
2017-08-24T09:18:53.274Z,65.17
2017-08-24T09:19:53.318Z,65.24
2017-08-24T09:21:46.346Z,65.17
2017-08-24T09:22:46.395Z,64.24
2017-08-24T09:24:39.409Z,63.50
2017-08-24T09:25:39.480Z,62.92
2017-08-24T09:27:32.512Z,62.21
2017-08-24T09:28:32.563Z,64.21
2017-08-24T09:30:25.588Z,65.24
2017-08-24T09:31:25.685Z,66.30
2017-08-24T09:33:18.676Z,65.34
2017-08-24T09:34:18.728Z,65.56
2017-08-24T09:36:11.755Z,63.76
2017-08-24T09:37:11.820Z,63.47
2017-08-24T09:39:04.826Z,63.11
2017-08-24T09:40:04.879Z,62.50
2017-08-24T09:41:57.903Z,63.21
2017-08-24T09:42:57.957Z,63.31
2017-08-24T09:44:50.960Z,62.92
2017-08-24T09:45:51.030Z,63.11
2017-08-24T09:47:44.060Z,61.54
2017-08-24T09:48:44.110Z,60.69
2017-08-24T09:50:37.121Z,63.37
2017-08-24T09:51:37.193Z,63.60
2017-08-24T09:53:30.231Z,63.56
2017-08-24T09:54:30.281Z,63.82
2017-08-24T09:56:23.307Z,64.59
2017-08-24T09:57:23.359Z,63.82
2017-08-24T09:59:16.387Z,64.98
2017-08-24T10:00:16.434Z,64.79
2017-08-24T10:02:09.479Z,64.66
2017-08-24T10:03:09.511Z,64.86
2017-08-24T10:05:02.520Z,64.86
2017-08-24T10:06:02.591Z,65.53
2017-08-24T10:07:55.620Z,66.94
2017-08-24T10:08:55.672Z,67.14
2017-08-24T10:10:48.692Z,68.19
2017-08-24T10:11:48.752Z,68.19
2017-08-24T10:13:41.782Z,67.88
2017-08-24T10:14:41.872Z,68.26
2017-08-24T10:16:34.857Z,66.94
2017-08-24T10:17:34.903Z,66.66
2017-08-24T10:19:27.944Z,66.66
2017-08-24T10:20:27.990Z,66.75
2017-08-24T10:22:21.026Z,67.43
2017-08-24T10:23:21.075Z,67.43
2017-08-24T10:25:14.077Z,66.94
2017-08-24T10:26:14.146Z,66.40
2017-08-24T10:28:07.227Z,65.24
2017-08-24T10:29:07.283Z,64.47
2017-08-24T10:31:00.330Z,64.56
2017-08-24T10:32:00.339Z,64.56
2017-08-24T10:33:53.373Z,64.50
2017-08-24T10:34:53.422Z,65.27
2017-08-24T10:36:46.459Z,64.31
2017-08-24T10:37:46.497Z,64.59
2017-08-24T10:39:39.503Z,63.82
2017-08-24T10:40:39.570Z,65.53
2017-08-24T10:42:32.631Z,64.98
2017-08-24T10:43:32.701Z,63.63
2017-08-24T10:45:25.650Z,64.92
2017-08-24T10:46:25.719Z,63.56
2017-08-24T10:48:18.750Z,63.28
2017-08-24T10:49:18.800Z,62.70
2017-08-24T10:51:11.813Z,63.24
2017-08-24T10:52:11.886Z,63.66
2017-08-24T10:54:04.920Z,64.47
2017-08-24T10:55:04.968Z,66.59
2017-08-24T10:56:58.005Z,67.17
2017-08-24T10:57:58.043Z,65.91
2017-08-24T10:59:51.102Z,65.05
2017-08-24T11:00:51.121Z,65.37
2017-08-24T11:02:44.171Z,65.27
2017-08-24T11:03:44.208Z,64.72
2017-08-24T11:05:37.199Z,63.40
2017-08-24T11:06:37.270Z,63.79
2017-08-24T11:08:30.295Z,62.34
2017-08-24T11:09:30.344Z,63.11
2017-08-24T11:11:23.355Z,60.50
2017-08-24T11:12:23.419Z,61.37
2017-08-24T11:14:16.463Z,62.12
2017-08-24T11:15:16.495Z,62.70
2017-08-24T11:17:09.525Z,63.21
2017-08-24T11:18:09.568Z,62.70
2017-08-24T11:20:02.597Z,61.66
2017-08-24T11:21:02.643Z,63.89
2017-08-24T11:22:55.689Z,62.34
2017-08-24T11:23:55.717Z,61.37
2017-08-24T11:25:48.722Z,62.34
2017-08-24T11:26:48.793Z,62.24
2017-08-24T11:28:41.833Z,61.60
2017-08-24T11:29:41.871Z,60.92
2017-08-24T11:31:34.876Z,62.37
2017-08-24T11:32:34.946Z,60.72
2017-08-24T11:34:27.984Z,61.30
2017-08-24T11:35:28.034Z,60.24
2017-08-24T11:37:21.042Z,63.63
2017-08-24T11:38:21.111Z,63.63
2017-08-24T11:40:14.143Z,63.63
2017-08-24T11:41:14.192Z,63.73
2017-08-24T11:43:07.227Z,62.05
2017-08-24T11:44:07.277Z,61.76
2017-08-24T11:46:00.282Z,63.11
2017-08-24T11:47:00.368Z,63.21
2017-08-24T11:48:53.377Z,63.31
2017-08-24T11:49:53.432Z,62.82
2017-08-24T11:51:46.431Z,62.44
2017-08-24T11:52:46.500Z,61.76
2017-08-24T11:54:39.525Z,62.21
2017-08-24T11:55:39.575Z,63.56
2017-08-24T11:57:32.579Z,62.79
2017-08-24T11:58:32.647Z,62.53
2017-08-24T12:00:25.671Z,61.86
2017-08-24T12:01:25.743Z,60.14
2017-08-24T12:03:18.748Z,59.95
2017-08-24T12:04:18.797Z,62.63
2017-08-24T12:06:11.809Z,60.02
2017-08-24T12:07:11.881Z,60.69
2017-08-24T12:09:04.913Z,60.21
2017-08-24T12:10:04.964Z,59.92
2017-08-24T12:11:57.969Z,62.40
2017-08-24T12:12:58.039Z,63.28
2017-08-24T12:14:51.579Z,62.31
2017-08-24T12:15:51.639Z,64.05
2017-08-24T12:17:44.668Z,61.92
2017-08-24T12:18:44.715Z,62.02
2017-08-24T12:20:37.740Z,62.05
2017-08-24T12:21:37.789Z,61.37
2017-08-24T12:23:30.822Z,62.34
2017-08-24T12:24:30.863Z,61.66
2017-08-24T12:26:23.870Z,62.24
2017-08-24T12:27:23.941Z,61.27
2017-08-24T12:29:16.967Z,58.95
2017-08-24T12:30:17.028Z,60.79
2017-08-24T12:32:10.028Z,61.79
2017-08-24T12:33:10.100Z,59.56
2017-08-24T12:35:03.149Z,62.76
2017-08-24T12:36:03.173Z,60.89
2017-08-24T12:37:56.197Z,60.50
2017-08-24T12:38:56.252Z,60.89
2017-08-24T12:40:49.275Z,61.44
2017-08-24T12:41:49.325Z,59.44
2017-08-24T12:43:43.867Z,60.02
2017-08-24T12:44:43.908Z,59.25
2017-08-24T12:46:36.931Z,60.72
2017-08-24T12:47:36.982Z,60.24
2017-08-24T12:49:30.009Z,61.37
2017-08-24T12:50:30.060Z,61.66
2017-08-24T12:52:23.066Z,61.69
2017-08-24T12:53:23.135Z,60.37
2017-08-24T12:55:16.184Z,60.27
2017-08-24T12:56:16.208Z,57.56
2017-08-24T12:58:09.211Z,55.92
2017-08-24T12:59:09.280Z,57.37
2017-08-24T13:01:02.302Z,58.72
2017-08-24T13:02:02.351Z,57.56
2017-08-24T13:03:55.356Z,59.31
2017-08-24T13:04:55.423Z,57.56
2017-08-24T13:06:48.445Z,59.01
2017-08-24T13:07:48.495Z,59.79
2017-08-24T13:09:41.541Z,59.31
2017-08-24T13:10:41.571Z,58.89
2017-08-24T13:12:34.575Z,61.50
2017-08-24T13:13:34.643Z,62.66
2017-08-24T13:15:27.667Z,59.56
2017-08-24T13:16:27.718Z,60.05
2017-08-24T13:18:20.728Z,57.92
2017-08-24T13:19:20.799Z,59.08
2017-08-24T13:21:13.833Z,59.25
2017-08-24T13:22:13.880Z,56.25
2017-08-24T13:24:06.900Z,58.12
2017-08-24T13:25:06.959Z,58.60
2017-08-24T13:26:59.981Z,56.18
2017-08-24T13:28:00.029Z,57.34
2017-08-24T13:29:53.055Z,57.15
2017-08-24T13:30:53.109Z,57.15
2017-08-24T13:32:46.120Z,57.54
2017-08-24T13:33:46.182Z,56.47
2017-08-24T13:35:39.739Z,57.44
2017-08-24T13:36:39.774Z,56.40
2017-08-24T13:38:32.792Z,55.73
2017-08-24T13:39:32.854Z,56.30
2017-08-24T13:41:25.877Z,56.21
2017-08-24T13:42:25.925Z,57.37
2017-08-24T13:44:18.931Z,55.73
2017-08-24T13:45:19.001Z,56.21
2017-08-24T13:47:12.024Z,57.37
2017-08-24T13:48:12.073Z,55.15
2017-08-24T13:50:05.102Z,53.79
2017-08-24T13:51:05.147Z,54.57
2017-08-24T13:52:58.172Z,53.99
2017-08-24T13:53:58.220Z,54.17
2017-08-24T13:55:51.733Z,53.50
2017-08-24T13:56:51.799Z,54.95
2017-08-24T13:58:44.825Z,54.44
2017-08-24T13:59:44.873Z,55.53
2017-08-24T14:01:37.881Z,55.15
2017-08-24T14:02:37.950Z,54.75
2017-08-24T14:04:30.974Z,55.63
2017-08-24T14:05:31.031Z,53.31
2017-08-24T14:07:24.056Z,54.21
2017-08-24T14:08:24.103Z,54.69
2017-08-24T14:10:17.118Z,53.72
2017-08-24T14:11:17.190Z,53.43
2017-08-24T14:13:10.227Z,54.57
2017-08-24T14:14:10.278Z,53.79
2017-08-24T14:16:03.302Z,54.95
2017-08-24T14:17:03.363Z,55.53
2017-08-24T14:18:56.401Z,54.11
2017-08-24T14:19:56.449Z,54.79
2017-08-24T14:21:49.458Z,53.23
2017-08-24T14:22:49.529Z,53.26
2017-08-24T14:24:42.555Z,53.94
2017-08-24T14:25:42.602Z,52.87
2017-08-24T14:27:35.639Z,53.45
2017-08-24T14:28:35.689Z,54.11
2017-08-24T14:30:28.701Z,53.81
2017-08-24T14:31:28.771Z,53.43
2017-08-24T14:33:21.817Z,53.31
2017-08-24T14:34:21.856Z,54.25
2017-08-24T14:36:14.864Z,54.63
2017-08-24T14:37:14.934Z,55.60
2017-08-24T14:39:07.960Z,54.35
2017-08-24T14:40:08.008Z,54.83
2017-08-24T14:42:01.022Z,55.24
2017-08-24T14:43:01.087Z,55.05
2017-08-24T14:44:54.218Z,53.99
2017-08-24T14:45:54.157Z,54.47
2017-08-24T14:47:47.192Z,55.15
2017-08-24T14:48:47.252Z,54.75
2017-08-24T14:50:40.262Z,54.25
2017-08-24T14:51:40.315Z,55.02
2017-08-24T14:53:33.337Z,55.21
2017-08-24T14:54:33.387Z,55.41
2017-08-24T14:56:26.395Z,55.05
2017-08-24T14:57:26.462Z,53.59
2017-08-24T14:59:19.488Z,53.21
2017-08-24T15:00:19.534Z,53.11
2017-08-24T15:02:12.545Z,53.28
2017-08-24T15:03:12.614Z,53.38
2017-08-24T15:05:05.640Z,53.11
2017-08-24T15:06:05.691Z,51.95
2017-08-24T15:07:58.757Z,52.24
2017-08-24T15:08:58.770Z,52.73
2017-08-24T15:10:51.814Z,52.53
2017-08-24T15:11:51.864Z,51.37
2017-08-24T15:13:44.960Z,54.08
2017-08-24T15:14:44.948Z,53.99
2017-08-24T15:16:37.960Z,54.17
2017-08-24T15:17:38.028Z,53.21
2017-08-24T15:19:31.059Z,53.67
2017-08-24T15:20:31.101Z,54.22
2017-08-24T15:22:24.123Z,54.61
2017-08-24T15:23:24.431Z,54.22
2017-08-24T15:25:17.741Z,54.41
2017-08-24T15:26:17.761Z,54.35
2017-08-24T15:28:10.789Z,55.29
2017-08-24T15:29:10.825Z,55.19
2017-08-24T15:31:03.852Z,55.87
2017-08-24T15:32:04.127Z,56.54
2017-08-24T15:33:56.965Z,56.73
2017-08-24T15:34:57.052Z,55.57
2017-08-24T15:36:50.136Z,55.67
2017-08-24T15:37:50.149Z,56.25
2017-08-24T15:39:43.146Z,56.15
2017-08-24T15:40:43.197Z,55.87
2017-08-24T15:42:36.178Z,55.29
2017-08-24T15:43:36.246Z,55.09
2017-08-24T15:45:29.276Z,55.38
2017-08-24T15:46:29.323Z,56.05
2017-08-24T15:48:22.352Z,54.22
2017-08-24T15:49:22.400Z,55.87
2017-08-24T15:51:15.402Z,56.15
2017-08-24T15:52:15.472Z,54.51
2017-08-24T15:54:08.557Z,55.35
2017-08-24T15:55:08.874Z,55.19
2017-08-24T15:57:02.057Z,55.26
2017-08-24T15:58:01.886Z,55.26
2017-08-24T15:59:54.896Z,55.07
2017-08-24T16:00:54.799Z,54.58
2017-08-24T16:02:47.762Z,55.35
2017-08-24T16:03:47.838Z,55.35
2017-08-24T16:05:40.859Z,54.97
2017-08-24T16:06:40.926Z,54.77
2017-08-24T16:08:33.939Z,55.45
2017-08-24T16:09:33.980Z,55.35
2017-08-24T16:11:26.986Z,56.41
2017-08-24T16:12:27.078Z,55.26
2017-08-24T16:14:20.090Z,55.83
2017-08-24T16:15:20.122Z,56.22
2017-08-24T16:17:13.129Z,56.03
2017-08-24T16:18:13.234Z,55.35
2017-08-24T16:20:06.535Z,55.93
2017-08-24T16:21:06.270Z,55.83
2017-08-24T16:22:59.285Z,56.41
2017-08-24T16:23:59.348Z,55.16
2017-08-24T16:25:52.545Z,55.83
2017-08-24T16:26:52.644Z,54.97
2017-08-24T16:28:45.499Z,56.13
2017-08-24T16:29:45.554Z,55.35
2017-08-24T16:31:41.480Z,56.03
2017-08-24T16:32:41.524Z,56.71
2017-08-24T16:34:35.572Z,56.22
2017-08-24T16:35:34.601Z,56.03
2017-08-24T16:37:27.683Z,56.13
2017-08-24T16:38:27.717Z,56.41
2017-08-24T16:40:20.747Z,56.99
2017-08-24T16:41:21.501Z,56.32
2017-08-24T16:43:13.983Z,56.03
2017-08-24T16:44:13.960Z,56.13
2017-08-24T16:46:07.011Z,55.62
2017-08-24T16:47:07.085Z,57.45
2017-08-24T16:49:00.082Z,57.93
2017-08-24T16:50:00.126Z,56.96
2017-08-24T16:51:53.129Z,56.77
2017-08-24T16:52:53.221Z,57.45
2017-08-24T16:54:49.376Z,57.16
2017-08-24T16:55:46.269Z,57.54
2017-08-24T16:57:39.285Z,58.03
2017-08-24T16:58:39.348Z,57.54
2017-08-24T17:00:32.517Z,57.71
2017-08-24T17:01:32.497Z,58.42
2017-08-24T17:03:25.536Z,58.90
2017-08-24T17:04:25.550Z,58.39
2017-08-24T17:06:20.979Z,58.97
2017-08-24T17:07:20.484Z,59.35
2017-08-24T17:09:14.969Z,59.06
2017-08-24T17:10:13.958Z,59.06
2017-08-24T17:12:08.594Z,58.58
2017-08-24T17:13:07.554Z,58.00
2017-08-24T17:15:01.071Z,58.97
2017-08-24T17:16:01.417Z,59.83
2017-08-24T17:17:54.214Z,59.25
2017-08-24T17:18:55.318Z,60.00
2017-08-24T17:20:48.825Z,59.13
2017-08-24T17:21:48.870Z,59.03
2017-08-24T17:23:41.860Z,59.80
2017-08-24T17:24:41.909Z,60.48
2017-08-24T17:26:35.615Z,60.19
2017-08-24T17:27:35.528Z,60.00
2017-08-24T17:29:28.762Z,59.80
2017-08-24T17:30:29.678Z,60.00
2017-08-24T17:32:21.601Z,61.25
2017-08-24T17:33:21.678Z,61.74
2017-08-24T17:35:14.753Z,61.03
2017-08-24T17:36:14.781Z,61.22
2017-08-24T17:38:07.827Z,61.22
2017-08-24T17:39:07.867Z,61.13
2017-08-24T17:41:00.882Z,61.90
2017-08-24T17:42:00.925Z,62.28
2017-08-24T17:43:53.960Z,62.18
2017-08-24T17:44:53.997Z,62.09
2017-08-24T17:46:48.631Z,63.02
2017-08-24T17:47:47.631Z,62.93
2017-08-24T17:49:40.627Z,63.60
2017-08-24T17:50:40.685Z,63.02
2017-08-24T17:52:33.801Z,63.24
2017-08-24T17:53:35.032Z,63.41
2017-08-24T17:55:41.376Z,63.50
2017-08-24T17:56:42.680Z,63.79
2017-08-24T17:58:34.951Z,64.08
2017-08-24T17:59:35.448Z,64.28
2017-08-24T18:01:27.739Z,64.37
2017-08-24T18:02:27.784Z,64.56
2017-08-24T18:04:20.820Z,64.37
2017-08-24T18:05:20.863Z,64.47
2017-08-24T18:07:14.374Z,65.14
2017-08-24T18:08:14.439Z,65.33
2017-08-24T18:10:07.463Z,64.56
2017-08-24T18:11:07.509Z,63.89
2017-08-24T18:13:00.519Z,63.89
2017-08-24T18:14:00.593Z,64.53
2017-08-24T18:15:54.131Z,64.53
2017-08-24T18:16:54.166Z,64.28
2017-08-24T18:18:47.198Z,65.43
2017-08-24T18:19:47.256Z,65.05
2017-08-24T18:21:40.325Z,65.40
2017-08-24T18:22:40.373Z,65.59
2017-08-24T18:24:33.396Z,65.88
2017-08-24T18:25:33.447Z,65.98
2017-08-24T18:27:26.463Z,64.92
2017-08-24T18:28:26.530Z,63.95
2017-08-24T18:30:19.559Z,64.53
2017-08-24T18:31:19.604Z,65.08
2017-08-24T18:33:12.610Z,64.59
2017-08-24T18:34:12.679Z,64.53